sensor_id;sensor_type;location;lat;lon;timestamp;P1;durP1;ratioP1;P2;durP2;ratioP2
44446;SDS011;30152;52.066;5.358;2023-10-13T06:46:37;26.08;;;14.63;;
44446;SDS011;30152;52.066;5.358;2023-10-13T06:49:03;28.08;;;16.20;;
44446;SDS011;30152;52.066;5.358;2023-10-13T06:51:29;30.60;;;15.98;;
44446;SDS011;30152;52.066;5.358;2023-10-13T06:54:02;26.00;;;16.48;;
44446;SDS011;30152;52.066;5.358;2023-10-13T06:56:28;30.27;;;17.33;;
44446;SDS011;30152;52.066;5.358;2023-10-13T06:58:54;28.60;;;16.33;;
44446;SDS011;30152;52.066;5.358;2023-10-13T07:01:33;29.30;;;17.58;;
44446;SDS011;30152;52.066;5.358;2023-10-13T07:04:07;29.55;;;18.10;;
44446;SDS011;30152;52.066;5.358;2023-10-13T07:06:40;29.75;;;18.33;;
44446;SDS011;30152;52.066;5.358;2023-10-13T07:09:12;30.55;;;18.55;;
44446;SDS011;30152;52.066;5.358;2023-10-13T07:11:59;31.63;;;19.67;;
44446;SDS011;30152;52.066;5.358;2023-10-13T07:14:28;30.42;;;19.08;;
44446;SDS011;30152;52.066;5.358;2023-10-13T07:17:02;30.65;;;18.08;;
44446;SDS011;30152;52.066;5.358;2023-10-13T07:19:29;28.52;;;17.67;;
44446;SDS011;30152;52.066;5.358;2023-10-13T07:21:56;33.03;;;17.77;;
44446;SDS011;30152;52.066;5.358;2023-10-13T07:24:33;31.35;;;18.45;;
44446;SDS011;30152;52.066;5.358;2023-10-13T07:27:04;31.27;;;17.25;;
44446;SDS011;30152;52.066;5.358;2023-10-13T07:29:32;34.05;;;16.75;;
44446;SDS011;30152;52.066;5.358;2023-10-13T07:32:00;27.50;;;16.17;;
44446;SDS011;30152;52.066;5.358;2023-10-13T07:34:34;23.25;;;14.20;;
44446;SDS011;30152;52.066;5.358;2023-10-13T07:37:01;25.35;;;12.93;;
44446;SDS011;30152;52.066;5.358;2023-10-13T07:39:32;23.63;;;12.02;;
44446;SDS011;30152;52.066;5.358;2023-10-13T07:41:59;25.73;;;11.73;;
44446;SDS011;30152;52.066;5.358;2023-10-13T07:44:33;25.77;;;11.65;;
44446;SDS011;30152;52.066;5.358;2023-10-13T07:46:59;26.27;;;12.23;;
44446;SDS011;30152;52.066;5.358;2023-10-13T07:49:29;26.17;;;11.93;;
44446;SDS011;30152;52.066;5.358;2023-10-13T07:51:56;21.40;;;11.07;;
44446;SDS011;30152;52.066;5.358;2023-10-13T07:54:31;26.02;;;11.57;;
44446;SDS011;30152;52.066;5.358;2023-10-13T07:56:57;23.63;;;10.70;;
44446;SDS011;30152;52.066;5.358;2023-10-13T07:59:23;25.48;;;11.05;;
44446;SDS011;30152;52.066;5.358;2023-10-13T08:01:49;23.98;;;10.25;;
44446;SDS011;30152;52.066;5.358;2023-10-13T08:04:37;26.40;;;10.77;;
44446;SDS011;30152;52.066;5.358;2023-10-13T08:07:03;23.27;;;9.43;;
44446;SDS011;30152;52.066;5.358;2023-10-13T08:09:41;23.42;;;9.77;;
44446;SDS011;30152;52.066;5.358;2023-10-13T08:12:16;21.80;;;9.40;;
44446;SDS011;30152;52.066;5.358;2023-10-13T08:14:46;20.17;;;9.00;;
44446;SDS011;30152;52.066;5.358;2023-10-13T08:17:12;22.27;;;8.27;;
44446;SDS011;30152;52.066;5.358;2023-10-13T08:19:39;18.25;;;8.30;;
44446;SDS011;30152;52.066;5.358;2023-10-13T08:22:09;19.45;;;7.70;;
44446;SDS011;30152;52.066;5.358;2023-10-13T08:24:45;18.48;;;7.95;;
44446;SDS011;30152;52.066;5.358;2023-10-13T08:27:12;19.70;;;7.72;;
44446;SDS011;30152;52.066;5.358;2023-10-13T08:29:57;18.27;;;7.25;;
44446;SDS011;30152;52.066;5.358;2023-10-13T08:32:29;18.35;;;7.78;;
44446;SDS011;30152;52.066;5.358;2023-10-13T08:34:58;23.23;;;7.32;;
44446;SDS011;30152;52.066;5.358;2023-10-13T08:37:29;20.60;;;8.20;;
44446;SDS011;30152;52.066;5.358;2023-10-13T08:39:58;21.27;;;7.93;;
44446;SDS011;30152;52.066;5.358;2023-10-13T08:42:37;21.13;;;7.60;;
44446;SDS011;30152;52.066;5.358;2023-10-13T08:45:09;18.65;;;6.50;;
44446;SDS011;30152;52.066;5.358;2023-10-13T08:48:06;20.58;;;7.85;;
44446;SDS011;30152;52.066;5.358;2023-10-13T08:50:47;18.70;;;6.72;;
44446;SDS011;30152;52.066;5.358;2023-10-13T08:53:14;16.42;;;6.68;;
44446;SDS011;30152;52.066;5.358;2023-10-13T08:55:53;21.85;;;8.27;;
44446;SDS011;30152;52.066;5.358;2023-10-13T08:58:47;22.23;;;7.00;;
44446;SDS011;30152;52.066;5.358;2023-10-13T09:04:05;18.48;;;7.20;;
44446;SDS011;30152;52.066;5.358;2023-10-13T09:09:30;17.98;;;6.70;;
44446;SDS011;30152;52.066;5.358;2023-10-13T09:12:00;19.53;;;6.37;;
44446;SDS011;30152;52.066;5.358;2023-10-13T09:14:33;19.40;;;6.72;;
44446;SDS011;30152;52.066;5.358;2023-10-13T09:17:08;17.60;;;6.57;;
44446;SDS011;30152;52.066;5.358;2023-10-13T09:19:47;17.55;;;6.97;;
44446;SDS011;30152;52.066;5.358;2023-10-13T09:22:20;22.42;;;6.47;;
44446;SDS011;30152;52.066;5.358;2023-10-13T09:24:58;23.27;;;7.15;;
44446;SDS011;30152;52.066;5.358;2023-10-13T09:27:24;18.50;;;6.70;;
44446;SDS011;30152;52.066;5.358;2023-10-13T09:30:01;18.90;;;6.15;;
44446;SDS011;30152;52.066;5.358;2023-10-13T09:32:47;19.63;;;7.15;;
44446;SDS011;30152;52.066;5.358;2023-10-13T09:35:19;16.52;;;6.82;;
44446;SDS011;30152;52.066;5.358;2023-10-13T09:37:48;18.35;;;7.93;;
44446;SDS011;30152;52.066;5.358;2023-10-13T09:40:15;22.15;;;6.93;;
44446;SDS011;30152;52.066;5.358;2023-10-13T09:43:02;17.73;;;6.47;;
44446;SDS011;30152;52.066;5.358;2023-10-13T09:45:39;16.02;;;6.32;;
44446;SDS011;30152;52.066;5.358;2023-10-13T09:48:09;17.27;;;6.45;;
44446;SDS011;30152;52.066;5.358;2023-10-13T09:50:41;15.10;;;6.32;;
44446;SDS011;30152;52.066;5.358;2023-10-13T09:53:11;17.65;;;6.90;;
44446;SDS011;30152;52.066;5.358;2023-10-13T09:55:43;20.25;;;6.85;;
44446;SDS011;30152;52.066;5.358;2023-10-13T09:58:11;22.35;;;6.43;;
44446;SDS011;30152;52.066;5.358;2023-10-13T10:00:52;18.77;;;6.00;;
44446;SDS011;30152;52.066;5.358;2023-10-13T10:03:50;20.20;;;6.45;;
44446;SDS011;30152;52.066;5.358;2023-10-13T10:06:21;17.92;;;6.95;;
44446;SDS011;30152;52.066;5.358;2023-10-13T10:08:53;18.67;;;6.50;;
44446;SDS011;30152;52.066;5.358;2023-10-13T10:14:44;18.55;;;6.20;;
44446;SDS011;30152;52.066;5.358;2023-10-13T10:17:39;21.67;;;6.60;;
44446;SDS011;30152;52.066;5.358;2023-10-13T10:20:06;20.58;;;6.57;;
44446;SDS011;30152;52.066;5.358;2023-10-13T10:22:57;22.97;;;7.37;;
44446;SDS011;30152;52.066;5.358;2023-10-13T10:25:31;20.40;;;6.22;;
44446;SDS011;30152;52.066;5.358;2023-10-13T10:28:01;20.55;;;6.68;;
44446;SDS011;30152;52.066;5.358;2023-10-13T10:30:31;17.45;;;6.50;;
44446;SDS011;30152;52.066;5.358;2023-10-13T10:32:59;17.70;;;6.83;;
44446;SDS011;30152;52.066;5.358;2023-10-13T10:35:26;20.05;;;6.50;;
44446;SDS011;30152;52.066;5.358;2023-10-13T10:37:57;18.23;;;6.77;;
44446;SDS011;30152;52.066;5.358;2023-10-13T10:40:36;20.67;;;6.80;;
44446;SDS011;30152;52.066;5.358;2023-10-13T10:43:24;21.43;;;6.57;;
44446;SDS011;30152;52.066;5.358;2023-10-13T10:45:51;18.10;;;7.18;;
44446;SDS011;30152;52.066;5.358;2023-10-13T10:48:18;20.17;;;6.97;;
44446;SDS011;30152;52.066;5.358;2023-10-13T10:50:52;20.75;;;6.65;;
44446;SDS011;30152;52.066;5.358;2023-10-13T10:53:24;21.85;;;6.68;;
44446;SDS011;30152;52.066;5.358;2023-10-13T10:56:08;22.98;;;7.03;;
44446;SDS011;30152;52.066;5.358;2023-10-13T10:58:45;19.30;;;6.65;;
44446;SDS011;30152;52.066;5.358;2023-10-13T11:01:20;19.30;;;6.35;;
44446;SDS011;30152;52.066;5.358;2023-10-13T11:03:53;17.17;;;6.00;;
44446;SDS011;30152;52.066;5.358;2023-10-13T11:06:22;14.45;;;5.85;;
44446;SDS011;30152;52.066;5.358;2023-10-13T11:08:49;19.75;;;5.97;;
44446;SDS011;30152;52.066;5.358;2023-10-13T11:11:28;22.38;;;6.20;;
44446;SDS011;30152;52.066;5.358;2023-10-13T11:13:56;11.93;;;4.93;;
44446;SDS011;30152;52.066;5.358;2023-10-13T11:16:46;16.50;;;5.50;;
44446;SDS011;30152;52.066;5.358;2023-10-13T11:22:09;16.75;;;5.93;;
44446;SDS011;30152;52.066;5.358;2023-10-13T11:24:57;19.20;;;6.05;;
44446;SDS011;30152;52.066;5.358;2023-10-13T11:27:42;16.27;;;5.38;;
44446;SDS011;30152;52.066;5.358;2023-10-13T11:30:14;18.38;;;6.65;;
44446;SDS011;30152;52.066;5.358;2023-10-13T11:32:57;17.88;;;6.18;;
44446;SDS011;30152;52.066;5.358;2023-10-13T11:35:23;17.58;;;5.85;;
44446;SDS011;30152;52.066;5.358;2023-10-13T11:37:49;21.20;;;6.67;;
44446;SDS011;30152;52.066;5.358;2023-10-13T11:40:28;14.40;;;5.53;;
44446;SDS011;30152;52.066;5.358;2023-10-13T11:43:24;20.27;;;5.60;;
44446;SDS011;30152;52.066;5.358;2023-10-13T11:48:38;16.25;;;6.10;;
44446;SDS011;30152;52.066;5.358;2023-10-13T11:51:07;14.48;;;5.55;;
44446;SDS011;30152;52.066;5.358;2023-10-13T13:56:09;16.75;;;7.28;;
44446;SDS011;30152;52.066;5.358;2023-10-13T13:58:35;22.55;;;8.15;;
44446;SDS011;30152;52.066;5.358;2023-10-13T14:01:03;20.17;;;7.30;;
44446;SDS011;30152;52.066;5.358;2023-10-13T14:03:45;25.67;;;7.43;;
44446;SDS011;30152;52.066;5.358;2023-10-13T14:06:14;24.13;;;7.65;;
44446;SDS011;30152;52.066;5.358;2023-10-13T14:08:45;20.38;;;7.15;;
44446;SDS011;30152;52.066;5.358;2023-10-13T14:11:13;18.25;;;6.95;;
44446;SDS011;30152;52.066;5.358;2023-10-13T14:13:46;19.13;;;7.50;;
44446;SDS011;30152;52.066;5.358;2023-10-13T14:16:14;23.45;;;7.95;;
44446;SDS011;30152;52.066;5.358;2023-10-13T14:23:50;20.92;;;6.72;;
44446;SDS011;30152;52.066;5.358;2023-10-13T14:26:19;20.25;;;8.02;;
44446;SDS011;30152;52.066;5.358;2023-10-13T14:28:49;28.02;;;7.47;;
44446;SDS011;30152;52.066;5.358;2023-10-13T14:36:11;30.42;;;8.77;;
44446;SDS011;30152;52.066;5.358;2023-10-13T14:38:37;19.70;;;7.95;;
44446;SDS011;30152;52.066;5.358;2023-10-13T14:41:02;22.48;;;7.82;;
44446;SDS011;30152;52.066;5.358;2023-10-13T14:43:30;24.00;;;7.35;;
44446;SDS011;30152;52.066;5.358;2023-10-13T15:17:55;33.38;;;9.13;;
44446;SDS011;30152;52.066;5.358;2023-10-13T15:20:21;26.83;;;11.20;;
44446;SDS011;30152;52.066;5.358;2023-10-13T15:22:48;27.20;;;11.03;;
44446;SDS011;30152;52.066;5.358;2023-10-13T15:25:14;26.27;;;11.10;;
44446;SDS011;30152;52.066;5.358;2023-10-13T15:28:04;28.00;;;11.80;;
44446;SDS011;30152;52.066;5.358;2023-10-13T15:30:34;28.33;;;11.20;;
44446;SDS011;30152;52.066;5.358;2023-10-13T15:33:13;25.30;;;11.52;;
44446;SDS011;30152;52.066;5.358;2023-10-13T15:35:41;29.77;;;12.63;;
44446;SDS011;30152;52.066;5.358;2023-10-13T15:38:08;31.83;;;12.45;;
44446;SDS011;30152;52.066;5.358;2023-10-13T15:40:39;28.47;;;12.23;;
44446;SDS011;30152;52.066;5.358;2023-10-13T15:43:07;29.60;;;12.10;;
44446;SDS011;30152;52.066;5.358;2023-10-13T15:45:32;30.20;;;12.27;;
44446;SDS011;30152;52.066;5.358;2023-10-13T15:48:05;26.55;;;12.77;;
44446;SDS011;30152;52.066;5.358;2023-10-13T15:50:38;25.40;;;12.50;;
44446;SDS011;30152;52.066;5.358;2023-10-13T15:53:04;28.05;;;12.52;;
44446;SDS011;30152;52.066;5.358;2023-10-13T15:55:31;28.08;;;12.60;;
44446;SDS011;30152;52.066;5.358;2023-10-13T15:58:01;29.88;;;12.38;;
44446;SDS011;30152;52.066;5.358;2023-10-13T16:00:27;28.90;;;12.33;;
44446;SDS011;30152;52.066;5.358;2023-10-13T16:02:55;32.00;;;11.95;;
44446;SDS011;30152;52.066;5.358;2023-10-13T16:05:30;30.80;;;12.18;;
44446;SDS011;30152;52.066;5.358;2023-10-13T16:08:00;30.23;;;11.93;;
44446;SDS011;30152;52.066;5.358;2023-10-13T16:10:26;26.55;;;11.90;;
44446;SDS011;30152;52.066;5.358;2023-10-13T16:12:54;22.40;;;11.70;;
44446;SDS011;30152;52.066;5.358;2023-10-13T16:15:24;23.92;;;10.85;;
44446;SDS011;30152;52.066;5.358;2023-10-13T16:17:49;24.88;;;11.18;;
44446;SDS011;30152;52.066;5.358;2023-10-13T16:20:18;32.00;;;11.48;;
44446;SDS011;30152;52.066;5.358;2023-10-13T16:22:46;26.83;;;11.40;;
44446;SDS011;30152;52.066;5.358;2023-10-13T16:25:16;25.02;;;11.32;;
44446;SDS011;30152;52.066;5.358;2023-10-13T16:27:43;30.17;;;12.43;;
44446;SDS011;30152;52.066;5.358;2023-10-13T16:30:09;24.50;;;10.93;;
44446;SDS011;30152;52.066;5.358;2023-10-13T16:32:40;24.48;;;11.43;;
44446;SDS011;30152;52.066;5.358;2023-10-13T16:35:06;27.30;;;12.27;;
44446;SDS011;30152;52.066;5.358;2023-10-13T16:37:32;28.48;;;11.95;;
44446;SDS011;30152;52.066;5.358;2023-10-13T16:39:58;26.98;;;11.35;;
44446;SDS011;30152;52.066;5.358;2023-10-13T16:42:31;25.20;;;11.63;;
44446;SDS011;30152;52.066;5.358;2023-10-13T16:45:00;25.30;;;11.63;;
44446;SDS011;30152;52.066;5.358;2023-10-13T16:47:39;28.42;;;12.18;;
44446;SDS011;30152;52.066;5.358;2023-10-13T16:50:07;23.08;;;11.38;;
44446;SDS011;30152;52.066;5.358;2023-10-13T16:52:33;28.50;;;11.70;;
44446;SDS011;30152;52.066;5.358;2023-10-13T16:54:59;26.75;;;11.50;;
44446;SDS011;30152;52.066;5.358;2023-10-13T16:57:25;25.73;;;11.95;;
44446;SDS011;30152;52.066;5.358;2023-10-13T16:59:51;24.55;;;11.52;;
44446;SDS011;30152;52.066;5.358;2023-10-13T17:02:18;25.70;;;10.82;;
44446;SDS011;30152;52.066;5.358;2023-10-13T17:04:43;25.07;;;11.63;;
44446;SDS011;30152;52.066;5.358;2023-10-13T17:07:09;23.70;;;11.00;;
44446;SDS011;30152;52.066;5.358;2023-10-13T17:09:39;21.98;;;11.00;;
44446;SDS011;30152;52.066;5.358;2023-10-13T17:12:05;25.63;;;11.50;;
44446;SDS011;30152;52.066;5.358;2023-10-13T17:14:31;23.67;;;10.27;;
44446;SDS011;30152;52.066;5.358;2023-10-13T17:16:56;32.60;;;12.03;;
44446;SDS011;30152;52.066;5.358;2023-10-13T17:19:22;23.75;;;12.18;;
44446;SDS011;30152;52.066;5.358;2023-10-13T17:21:49;26.75;;;12.27;;
44446;SDS011;30152;52.066;5.358;2023-10-13T17:24:16;29.20;;;11.80;;
44446;SDS011;30152;52.066;5.358;2023-10-13T17:26:44;24.30;;;12.15;;
44446;SDS011;30152;52.066;5.358;2023-10-13T17:29:14;28.70;;;12.57;;
44446;SDS011;30152;52.066;5.358;2023-10-13T17:31:40;29.60;;;14.52;;
44446;SDS011;30152;52.066;5.358;2023-10-13T17:34:06;34.37;;;15.33;;
44446;SDS011;30152;52.066;5.358;2023-10-13T17:36:35;34.17;;;15.68;;
44446;SDS011;30152;52.066;5.358;2023-10-13T17:39:03;33.42;;;15.35;;
44446;SDS011;30152;52.066;5.358;2023-10-13T17:41:33;31.17;;;13.60;;
44446;SDS011;30152;52.066;5.358;2023-10-13T17:43:59;32.33;;;14.90;;
44446;SDS011;30152;52.066;5.358;2023-10-13T17:46:27;31.03;;;15.10;;
44446;SDS011;30152;52.066;5.358;2023-10-13T17:48:54;26.70;;;14.13;;
44446;SDS011;30152;52.066;5.358;2023-10-13T17:51:20;34.70;;;14.80;;
44446;SDS011;30152;52.066;5.358;2023-10-13T17:53:48;35.40;;;14.83;;
44446;SDS011;30152;52.066;5.358;2023-10-13T17:56:14;26.63;;;14.00;;
44446;SDS011;30152;52.066;5.358;2023-10-13T17:58:44;32.33;;;14.75;;
44446;SDS011;30152;52.066;5.358;2023-10-13T18:01:15;29.58;;;13.95;;
44446;SDS011;30152;52.066;5.358;2023-10-13T18:03:47;30.95;;;15.52;;
44446;SDS011;30152;52.066;5.358;2023-10-13T18:06:14;33.78;;;15.65;;
44446;SDS011;30152;52.066;5.358;2023-10-13T18:08:42;31.48;;;14.18;;
44446;SDS011;30152;52.066;5.358;2023-10-13T18:11:08;31.30;;;15.15;;
44446;SDS011;30152;52.066;5.358;2023-10-13T18:13:34;34.88;;;14.68;;
44446;SDS011;30152;52.066;5.358;2023-10-13T18:16:25;29.43;;;15.00;;
44446;SDS011;30152;52.066;5.358;2023-10-13T18:18:50;31.70;;;14.67;;
44446;SDS011;30152;52.066;5.358;2023-10-13T18:21:18;34.07;;;15.67;;
44446;SDS011;30152;52.066;5.358;2023-10-13T18:23:48;33.78;;;15.73;;
44446;SDS011;30152;52.066;5.358;2023-10-13T18:26:14;29.02;;;13.57;;
44446;SDS011;30152;52.066;5.358;2023-10-13T18:28:40;29.88;;;14.48;;
44446;SDS011;30152;52.066;5.358;2023-10-13T18:31:08;28.45;;;13.75;;
44446;SDS011;30152;52.066;5.358;2023-10-13T18:33:38;28.33;;;12.63;;
44446;SDS011;30152;52.066;5.358;2023-10-13T18:36:14;29.17;;;12.80;;
44446;SDS011;30152;52.066;5.358;2023-10-13T18:38:44;26.27;;;11.32;;
44446;SDS011;30152;52.066;5.358;2023-10-13T18:41:10;22.55;;;11.32;;
44446;SDS011;30152;52.066;5.358;2023-10-13T18:43:41;29.38;;;12.00;;
44446;SDS011;30152;52.066;5.358;2023-10-13T18:46:08;20.02;;;11.18;;
44446;SDS011;30152;52.066;5.358;2023-10-13T18:48:38;23.07;;;10.93;;
44446;SDS011;30152;52.066;5.358;2023-10-13T18:51:08;21.73;;;11.10;;
44446;SDS011;30152;52.066;5.358;2023-10-13T18:53:34;19.07;;;10.80;;
44446;SDS011;30152;52.066;5.358;2023-10-13T18:56:08;24.27;;;10.73;;
44446;SDS011;30152;52.066;5.358;2023-10-13T18:58:35;25.03;;;12.60;;
44446;SDS011;30152;52.066;5.358;2023-10-13T19:01:34;24.27;;;11.88;;
44446;SDS011;30152;52.066;5.358;2023-10-13T19:04:02;29.05;;;12.40;;
44446;SDS011;30152;52.066;5.358;2023-10-13T19:06:29;27.65;;;12.88;;
44446;SDS011;30152;52.066;5.358;2023-10-13T19:08:58;25.90;;;12.43;;
44446;SDS011;30152;52.066;5.358;2023-10-13T19:11:29;25.55;;;12.70;;
44446;SDS011;30152;52.066;5.358;2023-10-13T19:13:58;29.70;;;12.75;;
44446;SDS011;30152;52.066;5.358;2023-10-13T19:16:24;31.52;;;14.70;;
44446;SDS011;30152;52.066;5.358;2023-10-13T19:18:50;27.65;;;13.93;;
44446;SDS011;30152;52.066;5.358;2023-10-13T19:21:17;24.65;;;14.10;;
44446;SDS011;30152;52.066;5.358;2023-10-13T19:23:43;28.25;;;15.60;;
44446;SDS011;30152;52.066;5.358;2023-10-13T19:26:36;30.02;;;15.43;;
44446;SDS011;30152;52.066;5.358;2023-10-13T19:29:02;29.80;;;15.68;;
44446;SDS011;30152;52.066;5.358;2023-10-13T19:31:30;33.97;;;18.48;;
44446;SDS011;30152;52.066;5.358;2023-10-13T19:33:57;32.80;;;15.93;;
44446;SDS011;30152;52.066;5.358;2023-10-13T19:36:27;32.58;;;15.57;;
44446;SDS011;30152;52.066;5.358;2023-10-13T19:38:56;27.73;;;14.65;;
44446;SDS011;30152;52.066;5.358;2023-10-13T19:41:24;29.75;;;14.43;;
44446;SDS011;30152;52.066;5.358;2023-10-13T19:43:53;26.80;;;14.02;;
44446;SDS011;30152;52.066;5.358;2023-10-13T19:46:22;29.17;;;14.70;;
44446;SDS011;30152;52.066;5.358;2023-10-13T19:48:48;27.77;;;13.73;;
44446;SDS011;30152;52.066;5.358;2023-10-13T19:51:14;37.92;;;14.75;;
44446;SDS011;30152;52.066;5.358;2023-10-13T19:53:43;29.93;;;13.77;;
44446;SDS011;30152;52.066;5.358;2023-10-13T19:56:10;27.15;;;13.05;;
44446;SDS011;30152;52.066;5.358;2023-10-13T19:58:37;27.98;;;13.73;;
44446;SDS011;30152;52.066;5.358;2023-10-13T20:01:10;29.20;;;13.45;;
44446;SDS011;30152;52.066;5.358;2023-10-13T20:03:40;26.13;;;13.37;;
44446;SDS011;30152;52.066;5.358;2023-10-13T20:06:09;27.40;;;12.85;;
44446;SDS011;30152;52.066;5.358;2023-10-13T20:08:36;25.67;;;13.18;;
44446;SDS011;30152;52.066;5.358;2023-10-13T20:11:02;28.55;;;13.88;;
44446;SDS011;30152;52.066;5.358;2023-10-13T20:13:29;31.55;;;14.70;;
44446;SDS011;30152;52.066;5.358;2023-10-13T20:16:01;31.02;;;15.48;;
44446;SDS011;30152;52.066;5.358;2023-10-13T20:18:32;32.43;;;15.10;;
44446;SDS011;30152;52.066;5.358;2023-10-13T20:21:01;29.48;;;14.07;;
44446;SDS011;30152;52.066;5.358;2023-10-13T20:23:29;32.40;;;14.93;;
44446;SDS011;30152;52.066;5.358;2023-10-13T20:25:55;25.00;;;11.25;;
44446;SDS011;30152;52.066;5.358;2023-10-13T20:28:21;26.63;;;12.23;;
44446;SDS011;30152;52.066;5.358;2023-10-13T20:30:47;19.73;;;9.75;;
44446;SDS011;30152;52.066;5.358;2023-10-13T20:33:13;22.23;;;9.37;;
44446;SDS011;30152;52.066;5.358;2023-10-13T20:35:48;14.90;;;5.80;;
44446;SDS011;30152;52.066;5.358;2023-10-13T20:38:14;14.33;;;5.47;;
44446;SDS011;30152;52.066;5.358;2023-10-13T20:40:43;11.68;;;4.80;;
44446;SDS011;30152;52.066;5.358;2023-10-13T20:43:10;10.15;;;4.20;;
44446;SDS011;30152;52.066;5.358;2023-10-13T20:45:37;9.43;;;3.55;;
44446;SDS011;30152;52.066;5.358;2023-10-13T20:48:03;9.38;;;3.00;;
44446;SDS011;30152;52.066;5.358;2023-10-13T20:50:29;10.50;;;2.97;;
44446;SDS011;30152;52.066;5.358;2023-10-13T20:52:56;9.15;;;2.80;;
44446;SDS011;30152;52.066;5.358;2023-10-13T20:55:22;5.45;;;2.00;;
44446;SDS011;30152;52.066;5.358;2023-10-13T20:57:48;9.15;;;2.58;;
44446;SDS011;30152;52.066;5.358;2023-10-13T21:00:15;7.57;;;2.40;;
44446;SDS011;30152;52.066;5.358;2023-10-13T21:02:47;8.93;;;2.50;;
44446;SDS011;30152;52.066;5.358;2023-10-13T21:05:16;6.22;;;2.50;;
44446;SDS011;30152;52.066;5.358;2023-10-13T21:07:46;8.40;;;2.92;;
44446;SDS011;30152;52.066;5.358;2023-10-13T21:10:13;10.75;;;2.92;;
44446;SDS011;30152;52.066;5.358;2023-10-13T21:12:42;9.10;;;3.60;;
44446;SDS011;30152;52.066;5.358;2023-10-13T21:15:11;11.82;;;4.03;;
44446;SDS011;30152;52.066;5.358;2023-10-13T21:17:43;10.70;;;4.63;;
44446;SDS011;30152;52.066;5.358;2023-10-13T21:20:10;11.20;;;5.13;;
44446;SDS011;30152;52.066;5.358;2023-10-13T21:22:39;10.57;;;4.67;;
44446;SDS011;30152;52.066;5.358;2023-10-13T21:25:05;12.55;;;5.35;;
44446;SDS011;30152;52.066;5.358;2023-10-13T21:27:31;13.80;;;5.60;;
44446;SDS011;30152;52.066;5.358;2023-10-13T21:29:57;15.80;;;6.57;;
44446;SDS011;30152;52.066;5.358;2023-10-13T21:32:23;16.10;;;7.17;;
